Time;durP1;ratioP1;P1;durP2;ratioP2;P2;SDS_P1;SDS_P2;PMS_P1;PMS_P2;Temp;Humidity;BMP_temperature;BMP_pressure;BME280_temperature;BME280_humidity;BME280_pressure;Samples;Min_cycle;Max_cycle;Signal;HPM_P1;HPM_P2
2023/03/25 00:01:14;;;;;;;8.15;1.17;;;;;;;7.71;100.00;99952.91;5067455;28;20105;-77
2023/03/25 00:03:49;;;;;;;7.65;1.10;;;;;;;7.69;100.00;99954.31;5089397;28;20383;-77
2023/03/25 00:06:15;;;;;;;7.13;0.85;;;;;;;7.68;100.00;99963.75;5073099;28;20550;-77
2023/03/25 00:08:41;;;;;;;5.97;1.33;;;;;;;7.67;100.00;99946.34;5078329;28;20032;-77
2023/03/25 00:11:07;;;;;;;9.40;1.58;;;;;;;7.64;100.00;99955.22;5083118;28;20030;-77
2023/03/25 00:13:33;;;;;;;5.93;1.00;;;;;;;7.61;100.00;99959.38;5097108;28;20030;-77
2023/03/25 00:16:00;;;;;;;5.90;1.27;;;;;;;7.59;100.00;99956.06;5100468;28;20019;-77
2023/03/25 00:18:32;;;;;;;8.07;1.10;;;;;;;7.56;100.00;99955.81;5080842;28;20027;-77
2023/03/25 00:21:01;;;;;;;9.65;1.10;;;;;;;7.57;100.00;99957.47;5101507;28;20094;-77
2023/03/25 00:23:27;;;;;;;6.18;0.80;;;;;;;7.53;100.00;99956.41;5100077;28;20364;-77
2023/03/25 00:25:58;;;;;;;7.88;1.38;;;;;;;7.47;100.00;99955.59;5080295;28;20102;-77
2023/03/25 00:28:24;;;;;;;8.88;1.20;;;;;;;7.45;100.00;99954.25;5084792;28;20027;-77
2023/03/25 00:30:52;;;;;;;6.88;0.85;;;;;;;7.43;100.00;99951.75;5083195;28;20106;-77
2023/03/25 00:33:18;;;;;;;9.98;1.42;;;;;;;7.39;100.00;99964.50;5103530;28;20059;-77
2023/03/25 00:35:43;;;;;;;9.77;1.77;;;;;;;7.30;100.00;99969.81;5079613;28;20028;-77
2023/03/25 00:38:12;;;;;;;12.77;1.58;;;;;;;7.25;100.00;99964.31;5078153;28;20042;-77
2023/03/25 00:40:37;;;;;;;10.63;1.55;;;;;;;7.21;100.00;99979.78;5083292;28;20051;-77
2023/03/25 00:43:03;;;;;;;7.95;1.48;;;;;;;7.17;100.00;99973.19;5068245;27;20027;-77
2023/03/25 00:45:29;;;;;;;15.10;1.70;;;;;;;7.14;100.00;99976.53;5083245;28;20119;-77
2023/03/25 00:47:54;;;;;;;10.60;1.67;;;;;;;7.11;100.00;99972.41;5082067;27;20064;-77
2023/03/25 00:50:20;;;;;;;5.90;1.10;;;;;;;7.09;100.00;99974.59;5103782;27;20030;-77
2023/03/25 00:52:47;;;;;;;9.52;1.60;;;;;;;7.06;100.00;99968.84;5068583;27;20569;-77
2023/03/25 00:55:12;;;;;;;8.45;1.90;;;;;;;7.03;100.00;99970.22;5079109;28;20111;-77
2023/03/25 00:57:38;;;;;;;11.10;1.65;;;;;;;7.00;100.00;99981.03;5098265;27;20027;-77
2023/03/25 01:00:10;;;;;;;7.72;1.58;;;;;;;7.00;100.00;99983.78;5086843;27;20388;-77
2023/03/25 01:02:38;;;;;;;7.03;1.50;;;;;;;6.93;100.00;99973.03;5103575;27;20033;-77
2023/03/25 01:05:04;;;;;;;10.95;1.83;;;;;;;6.91;100.00;99978.03;5100402;28;20034;-77
2023/03/25 01:07:30;;;;;;;9.00;1.85;;;;;;;6.92;100.00;99974.16;5079673;28;20102;-76
2023/03/25 01:09:57;;;;;;;9.55;1.60;;;;;;;6.90;100.00;99984.63;5069781;27;20089;-77
2023/03/25 01:12:23;;;;;;;10.18;1.48;;;;;;;6.87;100.00;99986.03;5078958;27;20024;-77
2023/03/25 01:14:48;;;;;;;7.38;1.10;;;;;;;6.81;100.00;99995.44;5069445;27;20027;-77
2023/03/25 01:17:14;;;;;;;7.13;1.15;;;;;;;6.79;100.00;99991.31;5086176;27;20031;-76
2023/03/25 01:19:39;;;;;;;8.80;1.42;;;;;;;6.72;100.00;99991.63;5103452;27;20019;-77
2023/03/25 01:22:05;;;;;;;9.13;1.50;;;;;;;6.70;100.00;99999.34;5092007;27;20084;-77
2023/03/25 01:24:30;;;;;;;6.55;1.45;;;;;;;6.65;100.00;99982.78;5082961;28;20666;-77
2023/03/25 01:26:56;;;;;;;11.70;1.55;;;;;;;6.65;100.00;99983.63;5082916;28;20027;-77
2023/03/25 01:29:22;;;;;;;6.90;1.35;;;;;;;6.62;100.00;99980.59;5103034;27;20640;-77
2023/03/25 01:31:47;;;;;;;8.15;1.35;;;;;;;6.63;100.00;99990.53;5098315;28;20059;-76
2023/03/25 01:34:13;;;;;;;8.50;1.50;;;;;;;6.59;100.00;99986.69;5092158;27;20031;-77
2023/03/25 01:36:39;;;;;;;7.50;1.33;;;;;;;6.54;100.00;99978.41;5101765;27;20051;-77
2023/03/25 01:39:05;;;;;;;10.43;1.45;;;;;;;6.51;100.00;99987.25;5065837;28;20034;-77
2023/03/25 01:41:32;;;;;;;6.93;1.27;;;;;;;6.46;100.00;100011.00;5085777;27;20020;-76
2023/03/25 01:44:04;;;;;;;8.43;1.35;;;;;;;6.44;100.00;100012.38;5082632;28;20084;-77
2023/03/25 01:46:29;;;;;;;8.48;1.30;;;;;;;6.43;100.00;100003.25;5135181;27;20574;-77
2023/03/25 01:48:55;;;;;;;6.82;1.27;;;;;;;6.39;100.00;99995.84;5069289;27;20043;-77
2023/03/25 01:51:23;;;;;;;12.68;1.80;;;;;;;6.36;100.00;99997.22;5084375;27;20036;-77
2023/03/25 01:53:49;;;;;;;7.57;1.77;;;;;;;6.34;100.00;99982.88;5084574;28;20031;-77
2023/03/25 01:56:17;;;;;;;8.23;1.20;;;;;;;6.31;100.00;99985.38;5084600;27;20031;-77
2023/03/25 01:58:42;;;;;;;9.02;1.50;;;;;;;6.31;100.00;99990.88;5077441;27;20561;-77
2023/03/25 02:01:12;;;;;;;9.02;1.77;;;;;;;6.27;100.00;99996.13;5085352;27;20034;-77
2023/03/25 02:03:38;;;;;;;9.32;1.42;;;;;;;6.26;100.00;99994.47;5103537;27;20027;-77
2023/03/25 02:06:05;;;;;;;9.57;1.30;;;;;;;6.21;100.00;100000.84;5098711;28;20024;-77
2023/03/25 02:08:36;;;;;;;9.43;1.27;;;;;;;6.20;100.00;100006.63;5111995;27;20031;-77
2023/03/25 02:11:02;;;;;;;9.75;1.73;;;;;;;6.15;100.00;100001.09;5093245;27;20451;-77
2023/03/25 02:13:27;;;;;;;10.77;2.03;;;;;;;6.16;100.00;99994.50;5081885;27;20031;-76
2023/03/25 02:16:20;;;;;;;10.18;1.42;;;;;;;6.15;100.00;100006.63;5064907;28;20028;-76
2023/03/25 02:19:25;;;;;;;12.97;2.03;;;;;;;6.11;100.00;100005.53;5095569;28;20048;-76
2023/03/25 02:22:10;;;;;;;9.35;1.60;;;;;;;6.10;100.00;100001.94;5132835;27;20310;-77
2023/03/25 02:24:42;;;;;;;10.70;1.60;;;;;;;6.10;100.00;100006.63;5081931;28;20089;-76
2023/03/25 02:27:27;;;;;;;7.88;1.27;;;;;;;6.09;100.00;100014.06;5101424;27;20483;-77
2023/03/25 02:30:11;;;;;;;10.45;1.80;;;;;;;6.03;100.00;100007.72;5102961;27;20054;-76
2023/03/25 02:33:04;;;;;;;12.68;1.52;;;;;;;6.03;100.00;100002.22;5127379;27;20020;-77
2023/03/25 02:35:52;;;;;;;9.00;1.52;;;;;;;6.00;100.00;100007.47;5101104;27;20042;-76
2023/03/25 02:38:35;;;;;;;7.43;2.03;;;;;;;5.96;100.00;100007.19;5100813;27;20130;-77
2023/03/25 02:41:29;;;;;;;9.35;1.58;;;;;;;5.96;100.00;100014.59;5086501;27;20058;-76
2023/03/25 02:44:38;;;;;;;7.03;1.30;;;;;;;5.92;100.00;100019.00;5113469;27;20103;-76
2023/03/25 02:47:06;;;;;;;6.25;1.10;;;;;;;5.94;100.00;100025.94;5100490;27;20047;-77
2023/03/25 02:49:40;;;;;;;10.75;1.48;;;;;;;5.90;100.00;100029.47;5096454;27;20055;-77
2023/03/25 02:52:14;;;;;;;14.55;1.60;;;;;;;5.90;100.00;100033.03;5081242;27;20409;-76
2023/03/25 02:54:40;;;;;;;12.15;1.85;;;;;;;5.88;100.00;100026.16;5097641;28;20072;-77
2023/03/25 02:57:06;;;;;;;8.60;1.58;;;;;;;5.85;100.00;100016.53;5108557;27;20023;-77
2023/03/25 02:59:32;;;;;;;8.93;1.73;;;;;;;5.84;100.00;100009.34;5081412;28;20602;-77
2023/03/25 03:01:58;;;;;;;12.95;1.85;;;;;;;5.81;100.00;100010.72;5097725;28;20023;-77
2023/03/25 03:04:27;;;;;;;9.40;1.50;;;;;;;5.80;100.00;100013.75;5097824;28;20061;-77
2023/03/25 03:06:53;;;;;;;12.55;2.05;;;;;;;5.80;100.00;100020.09;5097204;28;20024;-77
2023/03/25 03:09:33;;;;;;;8.70;1.83;;;;;;;5.80;100.00;100024.78;5079702;28;20050;-76
2023/03/25 03:12:07;;;;;;;9.07;1.42;;;;;;;5.81;100.00;100020.91;5099226;27;20027;-77
2023/03/25 03:15:03;;;;;;;13.88;1.60;;;;;;;5.74;100.00;100018.44;5101399;27;20049;-77
2023/03/25 03:17:48;;;;;;;11.80;1.73;;;;;;;5.76;100.00;100029.19;5102044;27;20034;-77
2023/03/25 03:20:24;;;;;;;11.68;2.15;;;;;;;5.77;100.00;100030.84;5084909;27;20030;-77
2023/03/25 03:23:03;;;;;;;10.05;2.17;;;;;;;5.75;100.00;100033.88;5073942;27;20034;-77
2023/03/25 03:25:38;;;;;;;14.13;1.92;;;;;;;5.70;100.00;100036.59;5100828;28;20027;-77
2023/03/25 03:28:33;;;;;;;11.23;1.55;;;;;;;5.75;100.00;100035.81;5081199;28;20132;-77
2023/03/25 03:31:05;;;;;;;7.47;1.42;;;;;;;5.73;100.00;100030.56;5102656;27;20031;-76
2023/03/25 03:33:39;;;;;;;16.00;2.28;;;;;;;5.74;100.00;100020.34;5087243;28;20026;-76
2023/03/25 03:36:14;;;;;;;16.35;1.90;;;;;;;5.77;100.00;100030.84;5100308;28;20391;-76
2023/03/25 03:38:42;;;;;;;10.32;1.45;;;;;;;5.80;100.00;100030.31;5099418;28;20031;-76
2023/03/25 03:41:09;;;;;;;8.07;1.67;;;;;;;5.83;100.00;100035.25;5076528;28;20028;-76
2023/03/25 03:44:06;;;;;;;10.02;2.17;;;;;;;5.83;100.00;100043.53;5100492;28;20034;-77
2023/03/25 03:46:35;;;;;;;10.27;1.70;;;;;;;5.84;100.00;100036.91;5086528;28;20069;-76
2023/03/25 03:49:01;;;;;;;11.93;1.80;;;;;;;5.84;100.00;100031.41;5080222;28;20043;-76
2023/03/25 03:51:35;;;;;;;14.18;2.47;;;;;;;5.85;100.00;100037.72;5078202;28;20032;-77
2023/03/25 03:54:07;;;;;;;11.75;2.30;;;;;;;5.84;100.00;100039.66;5071162;28;20019;-77
2023/03/25 03:56:53;;;;;;;5.35;1.42;;;;;;;5.82;100.00;100039.09;5077883;28;20027;-77
2023/03/25 03:59:28;;;;;;;13.57;2.03;;;;;;;5.81;100.00;100042.97;5064439;28;20114;-76
2023/03/25 04:02:01;;;;;;;12.55;2.28;;;;;;;5.82;100.00;100047.38;5101592;28;20574;-77
2023/03/25 04:04:26;;;;;;;14.70;1.80;;;;;;;5.82;100.00;100053.72;5088993;27;20034;-77
2023/03/25 04:06:57;;;;;;;13.68;2.10;;;;;;;5.75;100.00;100053.16;5125452;28;20471;-76
2023/03/25 04:09:53;;;;;;;13.95;2.38;;;;;;;5.74;100.00;100054.28;5100331;28;20027;-77
2023/03/25 04:12:26;;;;;;;13.45;2.20;;;;;;;5.75;100.00;100057.84;5100805;28;20023;-76
2023/03/25 04:14:53;;;;;;;19.33;2.53;;;;;;;5.69;100.00;100050.69;5096962;28;20387;-77
2023/03/25 04:17:19;;;;;;;12.63;1.92;;;;;;;5.71;100.00;100063.09;5078823;27;20023;-76
2023/03/25 04:19:47;;;;;;;12.85;1.88;;;;;;;5.67;100.00;100066.66;5087427;27;20046;-76
2023/03/25 04:22:13;;;;;;;12.10;1.92;;;;;;;5.73;100.00;100073.81;5112251;27;20526;-77
2023/03/25 04:24:40;;;;;;;13.40;1.95;;;;;;;5.68;100.00;100071.03;5104182;27;20054;-77
2023/03/25 04:27:08;;;;;;;15.57;1.95;;;;;;;5.68;100.00;100080.13;5084101;28;20111;-77
2023/03/25 04:29:33;;;;;;;12.65;2.15;;;;;;;5.70;100.00;100090.91;5067961;28;20126;-77
2023/03/25 04:32:00;;;;;;;10.43;2.45;;;;;;;5.65;100.00;100088.13;5099927;28;20024;-77
2023/03/25 04:34:26;;;;;;;20.42;3.25;;;;;;;5.65;100.00;100096.38;5094903;27;20058;-77
2023/03/25 04:36:52;;;;;;;14.68;2.97;;;;;;;5.64;100.00;100092.00;5082888;28;20032;-77
2023/03/25 04:39:21;;;;;;;15.35;2.83;;;;;;;5.62;100.00;100099.69;5092332;28;20035;-77
2023/03/25 04:41:49;;;;;;;17.17;2.55;;;;;;;5.60;100.00;100102.72;5063932;28;20055;-77
2023/03/25 04:44:20;;;;;;;11.82;2.17;;;;;;;5.56;100.00;100099.66;5059427;28;20042;-77
2023/03/25 04:46:46;;;;;;;14.10;2.60;;;;;;;5.59;100.00;100106.56;5096357;28;20429;-77
2023/03/25 04:49:20;;;;;;;17.42;2.40;;;;;;;5.57;100.00;100106.84;5121058;27;20027;-77
2023/03/25 04:51:51;;;;;;;15.57;2.40;;;;;;;5.57;100.00;100106.00;5099852;27;20023;-77
2023/03/25 04:54:18;;;;;;;14.18;2.30;;;;;;;5.56;100.00;100104.34;5104006;27;20019;-76
2023/03/25 04:56:43;;;;;;;13.73;2.25;;;;;;;5.53;100.00;100096.63;5099709;28;20030;-76
2023/03/25 04:59:09;;;;;;;9.65;2.28;;;;;;;5.50;100.00;100100.75;5098330;27;20027;-76
2023/03/25 05:01:36;;;;;;;14.43;2.85;;;;;;;5.45;100.00;100106.25;5078539;28;20024;-77
2023/03/25 05:04:06;;;;;;;14.43;2.72;;;;;;;5.44;100.00;100109.28;5099278;27;20034;-76
2023/03/25 05:06:37;;;;;;;15.70;2.03;;;;;;;5.46;100.00;100099.66;5087478;27;20023;-76
2023/03/25 05:09:04;;;;;;;13.18;2.30;;;;;;;5.41;100.00;100102.38;5120754;27;20058;-76
2023/03/25 05:11:30;;;;;;;14.20;2.20;;;;;;;5.41;100.00;100107.91;5103459;27;20365;-76
2023/03/25 05:13:56;;;;;;;13.60;2.10;;;;;;;5.40;100.00;100108.97;5099730;28;20077;-76
2023/03/25 05:16:21;;;;;;;21.15;2.22;;;;;;;5.38;100.00;100106.50;5082875;28;20472;-77
2023/03/25 05:18:47;;;;;;;18.20;2.15;;;;;;;5.35;100.00;100108.97;5100335;27;20030;-76
2023/03/25 05:21:12;;;;;;;13.80;2.60;;;;;;;5.30;100.00;100112.53;5070120;28;20024;-76
2023/03/25 05:23:38;;;;;;;15.95;2.55;;;;;;;5.29;100.00;100108.13;5096444;28;20058;-76
2023/03/25 05:26:05;;;;;;;15.90;2.28;;;;;;;5.30;100.00;100117.22;5069449;27;20041;-76
2023/03/25 05:28:30;;;;;;;11.82;1.75;;;;;;;5.30;100.00;100115.28;5079795;28;20031;-76
2023/03/25 05:30:55;;;;;;;12.85;2.10;;;;;;;5.30;100.00;100119.97;5100348;27;20019;-76
2023/03/25 05:33:21;;;;;;;16.77;2.45;;;;;;;5.31;100.00;100124.38;5056043;27;20032;-76
2023/03/25 05:35:47;;;;;;;14.32;2.35;;;;;;;5.26;100.00;100124.34;5062901;28;20019;-76
2023/03/25 05:38:17;;;;;;;12.48;2.33;;;;;;;5.27;100.00;100131.53;5085925;27;20395;-76
2023/03/25 05:40:44;;;;;;;16.98;2.35;;;;;;;5.23;100.00;100144.97;5104272;27;20034;-76
2023/03/25 05:43:09;;;;;;;13.65;2.42;;;;;;;5.25;100.00;100147.47;5061141;27;20031;-76
2023/03/25 05:45:35;;;;;;;12.05;2.55;;;;;;;5.22;100.00;100142.50;5069195;27;20039;-76
2023/03/25 05:48:02;;;;;;;19.50;2.40;;;;;;;5.23;100.00;100146.91;5085203;27;20047;-76
2023/03/25 05:50:27;;;;;;;15.02;2.60;;;;;;;5.23;100.00;100158.75;5081723;28;20035;-76
2023/03/25 05:52:54;;;;;;;13.40;2.40;;;;;;;5.20;100.00;100159.28;5102059;27;20097;-76
2023/03/25 05:55:20;;;;;;;17.42;2.25;;;;;;;5.20;100.00;100164.78;5099479;28;20062;-76
2023/03/25 05:57:46;;;;;;;16.50;2.42;;;;;;;5.22;100.00;100170.03;5114930;27;20065;-76
2023/03/25 06:00:12;;;;;;;12.55;2.42;;;;;;;5.21;100.00;100173.88;5081835;28;20384;-76
2023/03/25 06:02:41;;;;;;;19.13;2.35;;;;;;;5.21;100.00;100182.97;5092777;28;20110;-77
2023/03/25 06:05:14;;;;;;;14.85;2.08;;;;;;;5.23;100.00;100190.94;5092843;27;20023;-77
2023/03/25 06:07:44;;;;;;;15.30;2.30;;;;;;;5.23;100.00;100188.19;5119492;27;20035;-76
2023/03/25 06:10:11;;;;;;;19.05;2.10;;;;;;;5.25;100.00;100195.09;5102165;27;20056;-76
2023/03/25 06:12:39;;;;;;;17.10;2.65;;;;;;;5.26;100.00;100195.94;5113049;28;20119;-77
2023/03/25 06:15:08;;;;;;;15.50;2.70;;;;;;;5.27;100.00;100192.09;5095119;27;20069;-76
2023/03/25 06:17:33;;;;;;;15.38;2.60;;;;;;;5.27;100.00;100192.09;5084932;28;20049;-77
2023/03/25 06:20:06;;;;;;;14.95;2.72;;;;;;;5.30;100.00;100202.56;5083533;27;20031;-76
2023/03/25 06:22:32;;;;;;;23.90;3.22;;;;;;;5.33;100.00;100207.53;5081282;28;20519;-76
2023/03/25 06:24:58;;;;;;;14.63;2.47;;;;;;;5.34;100.00;100217.44;5085056;27;20034;-76
2023/03/25 06:27:23;;;;;;;12.60;2.00;;;;;;;5.36;100.00;100218.03;5068436;27;20633;-77
2023/03/25 06:29:49;;;;;;;18.42;3.03;;;;;;;5.41;100.00;100220.00;5082288;27;20027;-76
2023/03/25 06:32:15;;;;;;;18.05;2.70;;;;;;;5.45;100.00;100219.16;5113555;27;20088;-76
2023/03/25 06:34:43;;;;;;;16.30;2.63;;;;;;;5.50;100.00;100230.22;5077906;27;20023;-77
2023/03/25 06:37:09;;;;;;;18.52;2.67;;;;;;;5.55;100.00;100238.50;5072072;27;20440;-77
2023/03/25 06:39:36;;;;;;;14.02;2.42;;;;;;;5.59;100.00;100234.13;5101033;28;20031;-76
2023/03/25 06:42:02;;;;;;;14.38;2.58;;;;;;;5.62;100.00;100238.25;5104988;27;20028;-76
2023/03/25 06:44:28;;;;;;;13.55;2.33;;;;;;;5.67;100.00;100240.22;5081624;28;20039;-76
2023/03/25 06:46:53;;;;;;;18.20;2.78;;;;;;;5.70;100.00;100229.47;5097873;28;20031;-76
2023/03/25 06:49:19;;;;;;;17.33;2.55;;;;;;;5.76;100.00;100228.41;5101468;27;20428;-76
2023/03/25 06:51:44;;;;;;;21.55;2.80;;;;;;;5.81;100.00;100224.84;5101129;27;20034;-76
2023/03/25 06:54:10;;;;;;;15.57;2.72;;;;;;;5.86;100.00;100211.09;5088014;27;20031;-76
2023/03/25 06:56:35;;;;;;;14.32;2.13;;;;;;;5.91;100.00;100224.06;5080541;28;20031;-76
2023/03/25 06:59:01;;;;;;;13.73;2.63;;;;;;;5.98;100.00;100225.50;5078441;27;20031;-76
2023/03/25 07:01:26;;;;;;;19.08;2.72;;;;;;;6.04;100.00;100226.34;5101149;27;20023;-77
2023/03/25 07:03:52;;;;;;;15.57;2.70;;;;;;;6.12;100.00;100238.78;5098685;28;20441;-77
2023/03/25 07:06:21;;;;;;;19.77;2.78;;;;;;;6.18;100.00;100234.91;5100731;27;20066;-76
2023/03/25 07:08:46;;;;;;;19.88;2.72;;;;;;;6.26;100.00;100242.66;5084340;27;20118;-77
2023/03/25 07:11:12;;;;;;;18.60;2.58;;;;;;;6.34;100.00;100238.56;5067090;27;20479;-77
2023/03/25 07:13:38;;;;;;;21.40;2.67;;;;;;;6.42;100.00;100240.78;5117836;27;20054;-76
2023/03/25 07:16:04;;;;;;;18.45;2.72;;;;;;;6.49;100.00;100246.84;5100905;27;20031;-79
2023/03/25 07:18:29;;;;;;;19.50;2.30;;;;;;;6.56;100.00;100249.34;5099301;27;20055;-77
2023/03/25 07:20:55;;;;;;;19.65;3.30;;;;;;;6.64;100.00;100255.16;5095485;28;20019;-77
2023/03/25 07:23:20;;;;;;;18.38;2.75;;;;;;;6.71;100.00;100254.88;5078873;27;20034;-76
2023/03/25 07:25:46;;;;;;;21.23;3.47;;;;;;;6.76;100.00;100268.69;5067239;27;20034;-76
2023/03/25 07:28:11;;;;;;;16.77;3.20;;;;;;;6.85;100.00;100260.69;5100227;28;20031;-76
2023/03/25 07:30:37;;;;;;;14.07;2.47;;;;;;;6.91;100.00;100265.13;5085566;27;20098;-77
2023/03/25 07:33:02;;;;;;;23.02;3.10;;;;;;;6.99;100.00;100272.00;5087819;28;20034;-76
2023/03/25 07:35:28;;;;;;;19.52;2.45;;;;;;;7.06;100.00;100278.91;5100026;27;20063;-77
2023/03/25 07:37:53;;;;;;;15.23;2.45;;;;;;;7.11;100.00;100280.88;5084254;27;20034;-76
2023/03/25 07:40:19;;;;;;;15.27;2.88;;;;;;;7.19;100.00;100279.44;5093726;27;20023;-76
2023/03/25 07:42:44;;;;;;;13.65;3.08;;;;;;;7.25;100.00;100281.13;5083860;27;20039;-77
2023/03/25 07:45:10;;;;;;;18.00;3.17;;;;;;;7.33;100.00;100275.06;5092223;28;20031;-77
2023/03/25 07:47:35;;;;;;;13.45;2.38;;;;;;;7.39;100.00;100276.69;5080213;28;20052;-77
2023/03/25 07:50:01;;;;;;;14.70;2.58;;;;;;;7.48;100.00;100285.25;5097120;28;20028;-77
2023/03/25 07:52:27;;;;;;;19.10;2.65;;;;;;;7.56;100.00;100288.25;5083140;28;20709;-77
2023/03/25 07:54:52;;;;;;;24.83;3.50;;;;;;;7.65;100.00;100291.28;5101174;28;20469;-76
2023/03/25 07:57:18;;;;;;;19.67;3.20;;;;;;;7.72;100.00;100291.00;5070837;27;20031;-76
2023/03/25 07:59:43;;;;;;;21.83;2.70;;;;;;;7.79;100.00;100297.06;5101133;28;20049;-76
2023/03/25 08:02:12;;;;;;;19.58;3.20;;;;;;;7.88;100.00;100291.75;5114479;27;20027;-76
2023/03/25 08:04:37;;;;;;;18.30;2.88;;;;;;;7.93;100.00;100303.63;5099932;28;20032;-76
2023/03/25 08:07:03;;;;;;;19.58;2.92;;;;;;;8.00;100.00;100292.28;5084562;28;20027;-77
2023/03/25 08:09:28;;;;;;;16.58;2.92;;;;;;;8.09;100.00;100296.13;5121688;27;20019;-77
2023/03/25 08:11:54;;;;;;;19.45;3.35;;;;;;;8.15;100.00;100297.75;5096778;28;20038;-77
2023/03/25 08:14:19;;;;;;;16.92;3.03;;;;;;;8.23;100.00;100310.19;5100986;28;20368;-76
2023/03/25 08:16:45;;;;;;;18.98;2.78;;;;;;;8.32;100.00;100305.69;5101225;28;20039;-77
2023/03/25 08:19:11;;;;;;;18.70;2.85;;;;;;;8.38;100.00;100306.50;5071266;27;20027;-77
2023/03/25 08:21:36;;;;;;;17.00;2.70;;;;;;;8.46;100.00;100311.47;5092549;27;20038;-77
2023/03/25 08:24:03;;;;;;;18.15;2.50;;;;;;;8.52;100.00;100318.63;5087314;27;20125;-77
2023/03/25 08:26:29;;;;;;;15.43;2.72;;;;;;;8.56;100.00;100328.03;5088105;27;20039;-77
2023/03/25 08:28:56;;;;;;;15.15;2.58;;;;;;;8.63;100.00;100319.41;5072237;28;20036;-77
2023/03/25 08:31:23;;;;;;;21.42;3.53;;;;;;;8.73;100.00;100320.19;5094366;27;20037;-77
2023/03/25 08:33:48;;;;;;;16.85;2.97;;;;;;;8.79;100.00;100317.38;5101676;27;20170;-77
2023/03/25 08:36:18;;;;;;;15.32;2.40;;;;;;;8.84;100.00;100333.97;5103872;27;20031;-77
2023/03/25 08:38:45;;;;;;;24.27;3.15;;;;;;;8.89;100.00;100336.72;5084506;28;20103;-77
2023/03/25 08:41:10;;;;;;;16.77;2.67;;;;;;;8.95;100.00;100344.69;5107341;27;20472;-77
2023/03/25 08:43:36;;;;;;;17.25;2.55;;;;;;;8.99;100.00;100347.69;5083683;28;20391;-77
2023/03/25 08:46:01;;;;;;;15.93;3.03;;;;;;;9.06;100.00;100345.44;5093358;28;20028;-77
2023/03/25 08:48:27;;;;;;;22.35;2.90;;;;;;;9.13;100.00;100347.88;5083417;28;20039;-77
2023/03/25 08:50:52;;;;;;;19.98;2.70;;;;;;;9.16;100.00;100348.16;5113719;27;20054;-76
2023/03/25 08:53:18;;;;;;;29.50;3.17;;;;;;;9.23;100.00;100345.03;5103336;27;20036;-77
2023/03/25 08:55:43;;;;;;;14.07;2.72;;;;;;;9.26;100.00;100351.94;5120659;27;20028;-77
2023/03/25 08:58:09;;;;;;;16.67;2.65;;;;;;;9.32;100.00;100353.56;5069741;27;20023;-77
2023/03/25 09:00:36;;;;;;;13.13;2.45;;;;;;;9.39;100.00;100348.53;5083271;28;20031;-77
2023/03/25 09:03:02;;;;;;;22.83;3.13;;;;;;;9.45;100.00;100360.41;5066300;28;20059;-77
2023/03/25 09:05:28;;;;;;;17.02;3.13;;;;;;;9.51;100.00;100364.78;5083251;27;20084;-76
2023/03/25 09:07:53;;;;;;;26.10;3.47;;;;;;;9.55;100.00;100354.75;5103290;27;20028;-77
2023/03/25 09:10:19;;;;;;;13.68;2.55;;;;;;;9.58;100.00;100357.78;5103216;27;20027;-77
2023/03/25 09:12:44;;;;;;;19.73;3.40;;;;;;;9.65;100.00;100353.84;5099835;28;20044;-77
2023/03/25 09:15:11;;;;;;;23.15;3.47;;;;;;;9.70;100.00;100364.88;5085908;27;20019;-77
2023/03/25 09:17:36;;;;;;;19.67;3.15;;;;;;;9.75;100.00;100368.44;5103243;27;20031;-77
2023/03/25 09:20:02;;;;;;;26.02;3.67;;;;;;;9.82;100.00;100368.09;5100027;27;20030;-77
2023/03/25 09:22:27;;;;;;;16.70;2.85;;;;;;;9.87;100.00;100370.81;5084097;27;20027;-77
2023/03/25 09:24:53;;;;;;;16.02;2.72;;;;;;;9.98;100.00;100369.59;5069598;27;20033;-77
2023/03/25 09:27:18;;;;;;;21.85;3.10;;;;;;;10.01;100.00;100380.09;5102401;27;20023;-77
2023/03/25 09:29:44;;;;;;;18.48;3.10;;;;;;;10.11;100.00;100372.78;5138349;27;20035;-76
2023/03/25 09:32:09;;;;;;;20.88;2.85;;;;;;;10.19;100.00;100372.94;5080506;28;20023;-77
2023/03/25 09:34:36;;;;;;;15.10;2.78;;;;;;;10.28;100.00;100373.19;5074744;28;20065;-77
2023/03/25 09:37:03;;;;;;;22.58;3.47;;;;;;;10.38;100.00;100366.66;5086288;27;20046;-77
2023/03/25 09:39:28;;;;;;;23.23;3.10;;;;;;;10.44;100.00;100357.97;5086307;27;20027;-77
2023/03/25 09:42:17;;;;;;;15.27;2.72;;;;;;;10.53;100.00;100360.94;5102896;28;20043;-76
2023/03/25 09:44:42;;;;;;;26.17;2.90;;;;;;;10.63;100.00;100368.28;5106421;27;20073;-77
2023/03/25 09:47:08;;;;;;;22.60;3.20;;;;;;;10.69;100.00;100372.66;5119684;27;20051;-77
2023/03/25 09:49:41;;;;;;;31.33;3.88;;;;;;;10.81;100.00;100375.84;5102721;27;20031;-77
2023/03/25 09:52:14;;;;;;;23.88;4.07;;;;;;;10.88;100.00;100379.06;5102136;27;20498;-77
2023/03/25 09:54:43;;;;;;;36.22;3.88;;;;;;;11.00;100.00;100378.59;5102339;27;20368;-77
2023/03/25 09:57:12;;;;;;;25.77;4.10;;;;;;;11.09;100.00;100371.25;5095043;28;20028;-77
2023/03/25 09:59:45;;;;;;;22.73;3.33;;;;;;;11.17;100.00;100383.63;5081244;28;20102;-77
2023/03/25 10:02:26;;;;;;;19.55;3.03;;;;;;;11.24;100.00;100381.31;5093127;27;20038;-77
2023/03/25 10:04:57;;;;;;;24.15;4.07;;;;;;;11.35;100.00;100385.59;5099119;28;20099;-77
2023/03/25 10:07:55;;;;;;;28.85;3.45;;;;;;;11.49;100.00;100382.03;5115633;27;20119;-77
2023/03/25 10:10:45;;;;;;;26.75;3.72;;;;;;;11.59;100.00;100381.88;5090663;27;20035;-77
2023/03/25 10:13:41;;;;;;;25.48;3.80;;;;;;;11.69;100.00;100387.25;5118945;27;20023;-77
2023/03/25 10:16:16;;;;;;;19.83;4.13;;;;;;;11.79;100.00;100381.50;5112270;27;20072;-77
2023/03/25 10:19:14;;;;;;;23.45;3.72;;;;;;;11.89;100.00;100385.28;5133546;27;20391;-77
2023/03/25 10:21:58;;;;;;;27.25;3.97;;;;;;;11.99;100.00;100382.31;5057998;27;20046;-77
2023/03/25 10:24:49;;;;;;;22.85;3.58;;;;;;;12.11;100.00;100379.84;5085418;27;20027;-77
2023/03/25 10:27:26;;;;;;;26.33;3.97;;;;;;;12.22;100.00;100397.19;5064716;27;20030;-77
2023/03/25 10:30:03;;;;;;;23.42;4.07;;;;;;;12.29;100.00;100392.88;5111912;27;20027;-77
2023/03/25 10:32:53;;;;;;;26.30;3.75;;;;;;;12.40;100.00;100389.88;5089407;28;20527;-77
2023/03/25 10:35:20;;;;;;;27.02;3.85;;;;;;;12.49;100.00;100385.22;5100307;27;20027;-77
2023/03/25 10:37:46;;;;;;;26.92;3.88;;;;;;;12.55;100.00;100377.59;5098529;28;20032;-77
2023/03/25 10:40:18;;;;;;;25.92;3.83;;;;;;;12.63;100.00;100374.91;5100305;27;20584;-77
2023/03/25 10:43:13;;;;;;;28.15;3.60;;;;;;;12.73;100.00;100374.69;5118432;27;20558;-77
2023/03/25 10:45:38;;;;;;;25.08;3.75;;;;;;;12.81;100.00;100375.06;5098605;27;20402;-77
2023/03/25 10:48:13;;;;;;;19.60;3.40;;;;;;;12.90;100.00;100367.66;5101221;27;20039;-77
2023/03/25 10:50:40;;;;;;;24.60;3.83;;;;;;;12.97;100.00;100368.03;5084545;27;20028;-77
2023/03/25 10:53:05;;;;;;;19.98;3.63;;;;;;;13.03;100.00;100366.75;5084428;27;20080;-77
2023/03/25 10:55:33;;;;;;;23.98;4.05;;;;;;;13.12;100.00;100372.41;5098021;28;20028;-77
2023/03/25 10:58:00;;;;;;;21.30;3.35;;;;;;;13.17;100.00;100367.53;5099554;27;20038;-77
2023/03/25 11:00:26;;;;;;;22.25;3.60;;;;;;;13.25;100.00;100376.31;5084990;27;20475;-77
2023/03/25 11:02:53;;;;;;;20.42;3.35;;;;;;;13.32;100.00;100385.94;5084277;27;20103;-77
2023/03/25 11:05:21;;;;;;;23.73;3.72;;;;;;;13.40;100.00;100390.75;5101152;27;20027;-77
2023/03/25 11:07:48;;;;;;;21.92;3.50;;;;;;;13.49;100.00;100390.81;5101294;27;20098;-77
2023/03/25 11:10:24;;;;;;;23.08;4.00;;;;;;;13.56;100.00;100384.78;5117810;27;20031;-77
2023/03/25 11:12:51;;;;;;;24.95;3.70;;;;;;;13.64;100.00;100381.22;5098206;27;20084;-78
2023/03/25 11:15:18;;;;;;;23.08;3.95;;;;;;;13.71;100.00;100381.63;5095094;27;20027;-77
2023/03/25 11:17:44;;;;;;;30.52;4.20;;;;;;;13.80;100.00;100382.50;5080756;28;20028;-77
2023/03/25 11:20:37;;;;;;;22.48;3.72;;;;;;;13.88;100.00;100382.88;5095689;27;20076;-77
2023/03/25 11:23:05;;;;;;;27.80;4.20;;;;;;;13.98;100.00;100382.59;5102672;27;20035;-77
2023/03/25 11:25:35;;;;;;;28.58;3.97;;;;;;;14.02;100.00;100386.41;5101027;27;20054;-77
2023/03/25 11:28:02;;;;;;;24.65;3.80;;;;;;;14.06;100.00;100385.41;5111161;28;20027;-77
2023/03/25 11:30:27;;;;;;;24.65;4.05;;;;;;;14.12;100.00;100382.50;5083000;27;20050;-77